createdAt,value
2018-12-16T00:00:42.620Z,-0.40
2018-12-16T00:03:11.188Z,-0.40
2018-12-16T00:05:39.743Z,-0.40
2018-12-16T00:08:08.305Z,-0.40
2018-12-16T00:10:37.601Z,-0.40
2018-12-16T00:13:06.163Z,-0.40
2018-12-16T00:15:34.712Z,-0.40
2018-12-16T00:18:03.318Z,-0.40
2018-12-16T00:20:31.852Z,-0.40
2018-12-16T00:23:00.395Z,-0.40
2018-12-16T00:25:29.086Z,-0.30
2018-12-16T00:27:57.651Z,-0.30
2018-12-16T00:30:26.198Z,-0.30
2018-12-16T00:32:54.758Z,-0.30
2018-12-16T00:35:23.303Z,-0.30
2018-12-16T00:37:51.836Z,-0.30
2018-12-16T00:40:20.389Z,-0.30
2018-12-16T00:42:48.903Z,-0.40
2018-12-16T00:45:17.454Z,-0.40
2018-12-16T00:47:47.512Z,-0.40
2018-12-16T00:50:16.214Z,-0.40
2018-12-16T00:52:44.735Z,-0.40
2018-12-16T00:55:13.267Z,-0.40
2018-12-16T00:57:41.821Z,-0.40
2018-12-16T01:00:14.047Z,-0.40
2018-12-16T01:02:43.173Z,-0.40
2018-12-16T01:05:12.257Z,-0.40
2018-12-16T01:07:41.063Z,-0.40
2018-12-16T01:10:10.748Z,-0.40
2018-12-16T01:12:40.036Z,-0.40
2018-12-16T01:15:08.806Z,-0.30
2018-12-16T01:17:37.467Z,-0.30
2018-12-16T01:20:07.372Z,-0.30
2018-12-16T01:22:36.016Z,-0.40
2018-12-16T01:25:04.961Z,-0.40
2018-12-16T01:27:33.506Z,-0.30
2018-12-16T01:30:02.222Z,-0.30
2018-12-16T01:32:30.771Z,-0.30
2018-12-16T01:34:59.312Z,-0.30
2018-12-16T01:37:27.899Z,-0.30
2018-12-16T01:39:56.465Z,-0.30
2018-12-16T01:42:25.035Z,-0.30
2018-12-16T01:44:53.563Z,-0.30
2018-12-16T01:47:22.138Z,-0.30
2018-12-16T01:49:50.654Z,-0.30
2018-12-16T01:52:19.216Z,-0.30
2018-12-16T01:54:47.768Z,-0.30
2018-12-16T01:57:16.339Z,-0.30
2018-12-16T01:59:44.868Z,-0.30
2018-12-16T02:02:13.445Z,-0.30
2018-12-16T02:04:41.992Z,-0.30
2018-12-16T02:07:10.573Z,-0.30
2018-12-16T02:09:39.136Z,-0.30
2018-12-16T02:12:07.810Z,-0.40
2018-12-16T02:14:36.367Z,-0.40
2018-12-16T02:17:04.936Z,-0.40
2018-12-16T02:19:33.536Z,-0.40
2018-12-16T02:22:02.088Z,-0.50
2018-12-16T02:24:30.626Z,-0.50
2018-12-16T02:26:59.173Z,-0.60
2018-12-16T02:29:27.697Z,-0.70
2018-12-16T02:31:56.261Z,-0.80
2018-12-16T02:34:24.766Z,-0.90
2018-12-16T02:36:53.299Z,-0.90
2018-12-16T02:39:21.852Z,-1.00
2018-12-16T02:41:50.531Z,-1.10
2018-12-16T02:44:19.056Z,-1.10
2018-12-16T02:46:47.662Z,-1.10
2018-12-16T02:49:16.179Z,-1.20
2018-12-16T02:51:44.773Z,-1.10
2018-12-16T02:54:13.328Z,-1.20
2018-12-16T02:56:41.884Z,-1.10
2018-12-16T02:59:10.427Z,-1.10
2018-12-16T03:01:41.059Z,-1.10
2018-12-16T03:04:09.625Z,-1.10
2018-12-16T03:06:38.172Z,-1.10
2018-12-16T03:09:06.729Z,-1.10
2018-12-16T03:11:35.325Z,-1.00
2018-12-16T03:14:03.888Z,-1.00
2018-12-16T03:16:32.488Z,-1.00
2018-12-16T03:19:01.007Z,-1.00
2018-12-16T03:21:29.555Z,-1.00
2018-12-16T03:23:58.099Z,-1.10
2018-12-16T03:26:26.633Z,-1.10
2018-12-16T03:28:55.192Z,-1.00
2018-12-16T03:31:23.738Z,-1.10
2018-12-16T03:33:52.303Z,-1.20
2018-12-16T03:36:20.864Z,-1.10
2018-12-16T03:38:49.415Z,-1.10
2018-12-16T03:41:17.974Z,-1.20
2018-12-16T03:43:46.556Z,-1.10
2018-12-16T03:46:15.131Z,-1.20
2018-12-16T03:48:43.795Z,-1.20
2018-12-16T03:51:12.331Z,-1.20
2018-12-16T03:53:40.861Z,-1.30
2018-12-16T03:56:09.396Z,-1.30
2018-12-16T03:58:45.188Z,-1.30
2018-12-16T04:01:13.744Z,-1.30
2018-12-16T04:03:42.292Z,-1.30
2018-12-16T04:06:10.869Z,-1.30
2018-12-16T04:08:39.424Z,-1.30
2018-12-16T04:11:07.972Z,-1.30
2018-12-16T04:13:37.251Z,-1.40
2018-12-16T04:16:05.968Z,-1.40
2018-12-16T04:18:34.739Z,-1.40
2018-12-16T04:21:03.279Z,-1.50
2018-12-16T04:23:31.824Z,-1.50
2018-12-16T04:26:00.378Z,-1.50
2018-12-16T04:28:29.153Z,-1.50
2018-12-16T04:30:57.733Z,-1.50
2018-12-16T04:33:26.274Z,-1.50
2018-12-16T04:35:55.930Z,-1.50
2018-12-16T04:38:24.448Z,-1.50
2018-12-16T04:40:53.016Z,-1.50
2018-12-16T04:43:21.573Z,-1.50
2018-12-16T04:45:50.122Z,-1.60
2018-12-16T04:48:18.708Z,-1.50
2018-12-16T04:50:47.330Z,-1.60
2018-12-16T04:53:15.871Z,-1.60
2018-12-16T04:55:44.438Z,-1.60
2018-12-16T04:58:13.032Z,-1.60
2018-12-16T05:00:41.603Z,-1.60
2018-12-16T05:03:10.169Z,-1.60
2018-12-16T05:05:38.848Z,-1.60
2018-12-16T05:08:07.415Z,-1.60
2018-12-16T05:10:35.979Z,-1.60
2018-12-16T05:13:04.582Z,-1.60
2018-12-16T05:15:33.144Z,-1.60
2018-12-16T05:18:01.719Z,-1.60
2018-12-16T05:20:30.268Z,-1.60
2018-12-16T05:22:58.828Z,-1.60
2018-12-16T05:25:27.350Z,-1.60
2018-12-16T05:27:55.922Z,-1.50
2018-12-16T05:30:24.489Z,-1.50
2018-12-16T05:32:53.049Z,-1.50
2018-12-16T05:35:21.683Z,-1.60
2018-12-16T05:37:50.236Z,-1.50
2018-12-16T05:40:18.784Z,-1.60
2018-12-16T05:42:47.339Z,-1.60
2018-12-16T05:45:15.877Z,-1.60
2018-12-16T05:47:44.507Z,-1.60
2018-12-16T05:50:13.557Z,-1.50
2018-12-16T05:52:42.151Z,-1.50
2018-12-16T05:55:10.766Z,-1.50
2018-12-16T05:57:39.300Z,-1.60
2018-12-16T06:00:08.333Z,-1.50
2018-12-16T06:02:36.935Z,-1.60
2018-12-16T06:05:05.813Z,-1.60
2018-12-16T06:07:34.479Z,-1.60
2018-12-16T06:10:03.292Z,-1.60
2018-12-16T06:12:31.872Z,-1.50
2018-12-16T06:15:00.456Z,-1.50
2018-12-16T06:17:29.007Z,-1.50
2018-12-16T06:19:57.649Z,-1.50
2018-12-16T06:22:26.187Z,-1.40
2018-12-16T06:24:54.720Z,-1.40
2018-12-16T06:27:23.248Z,-1.40
2018-12-16T06:29:52.423Z,-1.40
2018-12-16T06:32:20.937Z,-1.40
2018-12-16T06:34:49.455Z,-1.40
2018-12-16T06:37:17.996Z,-1.40
2018-12-16T06:39:46.545Z,-1.40
2018-12-16T06:42:15.136Z,-1.30
2018-12-16T06:44:43.688Z,-1.30
2018-12-16T06:47:12.316Z,-1.30
2018-12-16T06:49:40.854Z,-1.30
2018-12-16T06:52:09.570Z,-1.30
2018-12-16T06:54:38.119Z,-1.30
2018-12-16T06:57:06.688Z,-1.20
2018-12-16T06:59:35.232Z,-1.30
2018-12-16T07:02:03.851Z,-1.30
2018-12-16T07:04:32.431Z,-1.20
2018-12-16T07:07:00.955Z,-1.30
2018-12-16T07:09:29.515Z,-1.20
2018-12-16T07:11:58.077Z,-1.20
2018-12-16T07:14:26.620Z,-1.20
2018-12-16T07:16:55.151Z,-1.20
2018-12-16T07:19:23.808Z,-1.20
2018-12-16T07:21:52.437Z,-1.20
2018-12-16T07:24:20.958Z,-1.20
2018-12-16T07:26:49.503Z,-1.20
2018-12-16T07:29:18.227Z,-1.20
2018-12-16T07:31:47.028Z,-1.10
2018-12-16T07:34:15.572Z,-1.10
2018-12-16T07:36:44.278Z,-1.10
2018-12-16T07:39:12.815Z,-1.00
2018-12-16T07:41:41.395Z,-1.00
2018-12-16T07:44:09.957Z,-1.00
2018-12-16T07:46:38.559Z,-1.00
2018-12-16T07:49:07.244Z,-1.00
2018-12-16T07:51:35.906Z,-1.00
2018-12-16T07:54:04.711Z,-1.00
2018-12-16T07:56:33.274Z,-1.00
2018-12-16T07:59:02.037Z,-1.00
2018-12-16T08:01:30.681Z,-1.00
2018-12-16T08:03:59.222Z,-0.90
2018-12-16T08:06:28.010Z,-0.90
2018-12-16T08:08:56.553Z,-0.90
2018-12-16T08:11:25.124Z,-0.90
2018-12-16T08:13:53.752Z,-0.90
2018-12-16T08:16:22.522Z,-0.80
2018-12-16T08:18:51.891Z,-0.80
2018-12-16T08:21:20.725Z,-0.80
2018-12-16T08:23:49.293Z,-0.70
2018-12-16T08:26:17.865Z,-0.80
2018-12-16T08:28:46.473Z,-0.80
2018-12-16T08:31:15.161Z,-0.80
2018-12-16T08:33:43.871Z,-0.80
2018-12-16T08:36:12.489Z,-0.80
2018-12-16T08:38:41.188Z,-0.80
2018-12-16T08:41:10.312Z,-0.80
2018-12-16T08:43:38.915Z,-0.80
2018-12-16T08:46:07.571Z,-0.90
2018-12-16T08:48:36.113Z,-0.80
2018-12-16T08:51:04.671Z,-0.80
2018-12-16T08:53:33.252Z,-0.80
2018-12-16T08:56:01.844Z,-0.80
2018-12-16T08:58:30.419Z,-0.80
2018-12-16T09:00:58.981Z,-0.70
2018-12-16T09:03:27.611Z,-0.80
2018-12-16T09:05:56.200Z,-0.80
2018-12-16T09:08:24.758Z,-0.80
2018-12-16T09:10:53.300Z,-0.80
2018-12-16T09:13:21.830Z,-0.80
2018-12-16T09:15:50.407Z,-0.80
2018-12-16T09:18:18.953Z,-0.80
2018-12-16T09:20:47.545Z,-0.70
2018-12-16T09:23:16.172Z,-0.70
2018-12-16T09:25:44.852Z,-0.80
2018-12-16T09:28:13.479Z,-0.80
2018-12-16T09:30:42.690Z,-0.70
2018-12-16T09:33:11.244Z,-0.70
2018-12-16T09:35:39.809Z,-0.70
2018-12-16T09:38:08.371Z,-0.70
2018-12-16T09:40:37.034Z,-0.60
2018-12-16T09:43:05.568Z,-0.60
2018-12-16T09:45:34.135Z,-0.60
2018-12-16T09:48:02.966Z,-0.60
2018-12-16T09:50:31.669Z,-0.60
2018-12-16T09:53:01.320Z,-0.60
2018-12-16T09:55:29.959Z,-0.50
2018-12-16T09:57:58.499Z,-0.60
2018-12-16T10:00:27.074Z,-0.50
2018-12-16T10:02:55.655Z,-0.50
2018-12-16T10:05:24.203Z,-0.40
2018-12-16T10:07:52.763Z,-0.40
2018-12-16T10:10:21.338Z,-0.40
2018-12-16T10:12:49.919Z,-0.30
2018-12-16T10:15:18.540Z,-0.30
2018-12-16T10:17:47.123Z,-0.30
2018-12-16T10:20:16.416Z,-0.30
2018-12-16T10:22:45.241Z,-0.20
2018-12-16T10:25:14.031Z,-0.30
2018-12-16T10:27:42.602Z,-0.30
2018-12-16T10:32:52.522Z,-0.30
2018-12-16T10:35:21.802Z,-0.20
2018-12-16T10:37:51.157Z,-0.20
2018-12-16T10:40:19.723Z,-0.20
2018-12-16T10:42:48.264Z,-0.20
2018-12-16T10:45:16.909Z,-0.20
2018-12-16T10:47:45.471Z,-0.10
2018-12-16T10:50:14.183Z,0.00
2018-12-16T10:52:42.799Z,0.00
2018-12-16T10:55:11.374Z,0.00
2018-12-16T10:57:40.030Z,0.00
2018-12-16T11:00:33.836Z,0.00
2018-12-16T11:03:02.380Z,0.10
2018-12-16T11:05:31.335Z,0.10
2018-12-16T11:07:59.941Z,0.10
2018-12-16T11:10:28.556Z,0.10
2018-12-16T11:12:57.598Z,0.20
2018-12-16T11:15:26.259Z,0.10
2018-12-16T11:17:54.915Z,0.20
2018-12-16T11:20:23.495Z,0.20
2018-12-16T11:22:52.045Z,0.20
2018-12-16T11:25:21.281Z,0.30
2018-12-16T11:27:49.815Z,0.30
2018-12-16T11:30:18.367Z,0.30
2018-12-16T11:32:47.053Z,0.30
2018-12-16T11:35:15.613Z,0.30
2018-12-16T11:37:44.183Z,0.30
2018-12-16T11:40:12.768Z,0.40
2018-12-16T11:42:41.281Z,0.30
2018-12-16T11:45:09.953Z,0.20
2018-12-16T11:47:38.636Z,0.20
2018-12-16T11:50:17.790Z,0.20
2018-12-16T11:52:46.738Z,0.30
2018-12-16T11:55:17.609Z,0.20
2018-12-16T11:57:47.020Z,0.20
2018-12-16T12:00:15.568Z,0.20
2018-12-16T12:02:44.141Z,0.20
2018-12-16T12:05:12.804Z,0.20
2018-12-16T12:07:41.375Z,0.20
2018-12-16T12:10:09.973Z,0.20
2018-12-16T12:12:39.564Z,0.20
2018-12-16T12:15:08.271Z,0.20
2018-12-16T12:17:38.157Z,0.20
2018-12-16T12:20:07.068Z,0.20
2018-12-16T12:22:36.861Z,0.20
2018-12-16T12:25:11.818Z,0.20
2018-12-16T12:27:40.380Z,0.30
2018-12-16T12:30:11.105Z,0.30
2018-12-16T12:32:39.747Z,0.30
2018-12-16T12:35:09.047Z,0.30
2018-12-16T12:37:37.639Z,0.20
2018-12-16T12:40:11.272Z,0.20
2018-12-16T12:42:39.820Z,0.20
2018-12-16T12:45:08.572Z,0.30
2018-12-16T12:47:37.207Z,0.30
2018-12-16T12:50:06.642Z,0.30
2018-12-16T12:52:35.289Z,0.30
2018-12-16T12:55:04.327Z,0.40
2018-12-16T12:57:32.908Z,0.30
2018-12-16T13:00:01.459Z,0.40
2018-12-16T13:02:30.192Z,0.40
2018-12-16T13:04:58.735Z,0.30
2018-12-16T13:07:27.264Z,0.40
2018-12-16T13:09:55.822Z,0.40
2018-12-16T13:12:24.388Z,0.40
2018-12-16T13:14:52.951Z,0.30
2018-12-16T13:17:21.507Z,0.40
2018-12-16T13:19:50.826Z,0.40
2018-12-16T13:22:19.390Z,0.40
2018-12-16T13:24:59.080Z,0.40
2018-12-16T13:27:27.606Z,0.40
2018-12-16T13:29:56.172Z,0.40
2018-12-16T13:32:24.775Z,0.40
2018-12-16T13:34:53.444Z,0.40
2018-12-16T13:37:21.992Z,0.50
2018-12-16T13:39:50.540Z,0.50
2018-12-16T13:42:19.144Z,0.40
2018-12-16T13:44:47.702Z,0.50
2018-12-16T13:47:16.355Z,0.50
2018-12-16T13:49:44.896Z,0.50
2018-12-16T13:52:14.132Z,0.50
2018-12-16T13:54:42.736Z,0.50
2018-12-16T13:57:11.297Z,0.50
2018-12-16T13:59:39.946Z,0.50
2018-12-16T14:02:08.518Z,0.40
2018-12-16T14:04:37.063Z,0.50
2018-12-16T14:07:05.681Z,0.50
2018-12-16T14:09:34.280Z,0.50
2018-12-16T14:12:02.841Z,0.50
2018-12-16T14:14:31.375Z,0.50
2018-12-16T14:16:59.933Z,0.50
2018-12-16T14:19:28.491Z,0.50
2018-12-16T14:21:57.080Z,0.50
2018-12-16T14:24:27.144Z,0.50
2018-12-16T14:26:55.859Z,0.60
2018-12-16T14:29:25.251Z,0.60
2018-12-16T14:31:53.873Z,0.60
2018-12-16T14:34:22.418Z,0.60
2018-12-16T14:36:50.983Z,0.60
2018-12-16T14:39:19.537Z,0.60
2018-12-16T14:41:48.090Z,0.70
2018-12-16T14:44:16.672Z,0.70
2018-12-16T14:46:45.581Z,0.70
2018-12-16T14:49:14.116Z,0.70
2018-12-16T14:51:43.250Z,0.70
2018-12-16T14:54:11.855Z,0.80
2018-12-16T14:56:40.428Z,0.70
2018-12-16T14:59:09.820Z,0.80
2018-12-16T15:01:38.364Z,0.70
2018-12-16T15:04:07.807Z,0.70
2018-12-16T15:06:36.394Z,0.80
2018-12-16T15:09:09.097Z,0.70
2018-12-16T15:11:38.636Z,0.80
2018-12-16T15:14:09.304Z,0.70
2018-12-16T15:16:37.899Z,0.80
2018-12-16T15:19:10.745Z,0.80
2018-12-16T15:21:40.041Z,0.80
2018-12-16T15:24:08.720Z,0.80
2018-12-16T15:26:37.327Z,0.80
2018-12-16T15:29:05.967Z,0.80
2018-12-16T15:31:34.516Z,0.80
2018-12-16T15:34:03.233Z,0.90
2018-12-16T15:36:31.949Z,0.80
2018-12-16T15:39:00.628Z,0.90
2018-12-16T15:41:29.220Z,0.90
2018-12-16T15:43:57.773Z,0.90
2018-12-16T15:46:26.354Z,0.80
2018-12-16T15:48:54.902Z,0.90
2018-12-16T15:51:23.497Z,0.90
2018-12-16T15:53:52.046Z,1.00
2018-12-16T15:56:21.722Z,0.90
2018-12-16T15:58:50.717Z,0.90
2018-12-16T16:01:19.428Z,0.90
2018-12-16T16:03:48.058Z,0.90
2018-12-16T16:06:16.620Z,1.00
2018-12-16T16:08:45.185Z,0.90
2018-12-16T16:11:13.931Z,0.90
2018-12-16T16:13:42.504Z,1.00
2018-12-16T16:16:11.082Z,0.90
2018-12-16T16:18:39.637Z,0.90
2018-12-16T16:21:08.206Z,1.00
2018-12-16T16:23:36.748Z,1.00
2018-12-16T16:26:05.300Z,1.00
2018-12-16T16:28:39.003Z,1.00
2018-12-16T16:31:07.593Z,1.00
2018-12-16T16:33:36.149Z,1.00
2018-12-16T16:36:06.786Z,1.00
2018-12-16T16:38:35.932Z,1.10
2018-12-16T16:41:04.651Z,1.10
2018-12-16T16:43:33.311Z,1.10
2018-12-16T16:46:01.872Z,1.10
2018-12-16T16:48:30.420Z,1.10
2018-12-16T16:50:59.000Z,1.10
2018-12-16T16:53:28.621Z,1.10
2018-12-16T16:55:57.197Z,1.10
2018-12-16T16:58:25.972Z,1.10
2018-12-16T17:00:54.628Z,1.10
2018-12-16T17:03:23.300Z,1.10
2018-12-16T17:05:51.912Z,1.10
2018-12-16T17:08:20.594Z,1.10
2018-12-16T17:10:49.127Z,1.20
2018-12-16T17:13:17.738Z,1.20
2018-12-16T17:15:49.568Z,1.20
2018-12-16T17:18:18.119Z,1.20
2018-12-16T17:20:46.696Z,1.30
2018-12-16T17:23:15.240Z,1.30
2018-12-16T17:25:48.250Z,1.30
2018-12-16T17:28:14.372Z,1.30
2018-12-16T17:30:42.921Z,1.30
2018-12-16T17:33:11.479Z,1.30
2018-12-16T17:35:40.056Z,1.30
2018-12-16T17:38:08.737Z,1.30
2018-12-16T17:40:37.372Z,1.30
2018-12-16T17:43:05.950Z,1.30
2018-12-16T17:45:34.553Z,1.40
2018-12-16T17:48:03.091Z,1.30
2018-12-16T17:50:31.666Z,1.30
2018-12-16T17:53:00.206Z,1.40
2018-12-16T17:55:28.852Z,1.40
2018-12-16T17:57:57.463Z,1.40
2018-12-16T18:00:26.473Z,1.40
2018-12-16T18:02:55.086Z,1.40
2018-12-16T18:05:23.631Z,1.40
2018-12-16T18:07:52.250Z,1.40
2018-12-16T18:10:20.960Z,1.40
2018-12-16T18:12:49.516Z,1.30
2018-12-16T18:15:18.064Z,1.30
2018-12-16T18:17:46.656Z,1.20
2018-12-16T18:20:15.273Z,1.20
2018-12-16T18:22:43.942Z,1.20
2018-12-16T18:25:12.507Z,1.20
2018-12-16T18:27:41.084Z,1.10
2018-12-16T18:30:10.269Z,1.10
2018-12-16T18:32:38.837Z,1.10
2018-12-16T18:35:07.505Z,1.10
2018-12-16T18:37:36.114Z,1.10
2018-12-16T18:40:05.151Z,1.10
2018-12-16T18:42:33.702Z,1.10
2018-12-16T18:45:02.266Z,1.10
2018-12-16T18:47:30.812Z,1.10
2018-12-16T18:49:59.376Z,1.10
2018-12-16T18:52:27.930Z,1.10
2018-12-16T18:54:56.497Z,1.20
2018-12-16T18:57:25.184Z,1.20
2018-12-16T18:59:53.767Z,1.20
2018-12-16T19:02:22.302Z,1.20
2018-12-16T19:04:50.849Z,1.30
2018-12-16T19:07:19.441Z,1.30
2018-12-16T19:09:48.003Z,1.30
2018-12-16T19:12:16.545Z,1.40
2018-12-16T19:14:45.712Z,1.40
2018-12-16T19:17:14.277Z,1.40
2018-12-16T19:19:42.912Z,1.40
2018-12-16T19:22:11.433Z,1.40
2018-12-16T19:24:40.092Z,1.40
2018-12-16T19:27:08.619Z,1.50
2018-12-16T19:29:37.162Z,1.50
2018-12-16T19:32:05.741Z,1.50
2018-12-16T19:34:34.289Z,1.50
2018-12-16T19:37:02.864Z,1.60
2018-12-16T19:39:31.697Z,1.60
2018-12-16T19:42:00.273Z,1.60
2018-12-16T19:44:28.857Z,1.60
2018-12-16T19:46:57.412Z,1.60
2018-12-16T19:49:25.955Z,1.60
2018-12-16T19:51:57.913Z,1.60
2018-12-16T19:54:26.832Z,1.60
2018-12-16T19:56:55.383Z,1.60
2018-12-16T19:59:23.969Z,1.70
2018-12-16T20:01:52.594Z,1.70
2018-12-16T20:04:21.171Z,1.60
2018-12-16T20:06:50.752Z,1.70
2018-12-16T20:09:19.307Z,1.70
2018-12-16T20:11:48.013Z,1.70
2018-12-16T20:14:16.584Z,1.70
2018-12-16T20:16:45.210Z,1.70
2018-12-16T20:19:14.511Z,1.70
2018-12-16T20:21:43.119Z,1.70
2018-12-16T20:24:11.705Z,1.60
2018-12-16T20:26:40.267Z,1.60
2018-12-16T20:29:08.856Z,1.50
2018-12-16T20:31:37.399Z,1.50
2018-12-16T20:34:06.049Z,1.50
2018-12-16T20:36:34.709Z,1.40
2018-12-16T20:39:04.276Z,1.40
2018-12-16T20:41:32.795Z,1.40
2018-12-16T20:44:02.790Z,1.40
2018-12-16T20:46:31.604Z,1.40
2018-12-16T20:49:00.137Z,1.40
2018-12-16T20:51:28.740Z,1.40
2018-12-16T20:53:57.284Z,1.40
2018-12-16T20:56:25.845Z,1.40
2018-12-16T20:58:54.433Z,1.40
2018-12-16T21:01:23.056Z,1.50
2018-12-16T21:03:51.730Z,1.50
2018-12-16T21:06:20.275Z,1.50
2018-12-16T21:08:48.848Z,1.50
2018-12-16T21:11:22.676Z,1.40
2018-12-16T21:13:56.324Z,1.40
2018-12-16T21:17:33.043Z,1.40
2018-12-16T21:20:01.649Z,1.40
2018-12-16T21:22:30.318Z,1.50
2018-12-16T21:24:58.924Z,1.50
2018-12-16T21:27:27.666Z,1.50
2018-12-16T21:29:56.260Z,1.50
2018-12-16T21:32:24.818Z,1.40
2018-12-16T21:34:53.352Z,1.40
2018-12-16T21:37:21.913Z,1.40
2018-12-16T21:39:50.482Z,1.50
2018-12-16T21:42:19.081Z,1.50
2018-12-16T21:44:47.661Z,1.50
2018-12-16T21:47:16.199Z,1.60
2018-12-16T21:49:44.864Z,1.60
2018-12-16T21:52:14.559Z,1.60
2018-12-16T21:54:43.148Z,1.60
2018-12-16T21:57:11.717Z,1.60
2018-12-16T21:59:40.604Z,1.60
2018-12-16T22:02:09.133Z,1.60
2018-12-16T22:04:37.816Z,1.60
2018-12-16T22:07:06.500Z,1.60
2018-12-16T22:09:35.186Z,1.60
2018-12-16T22:12:03.879Z,1.60
2018-12-16T22:14:32.458Z,1.60
2018-12-16T22:17:01.028Z,1.50
2018-12-16T22:19:29.680Z,1.40
2018-12-16T22:21:59.244Z,1.50
2018-12-16T22:24:27.788Z,1.50
2018-12-16T22:26:56.356Z,1.50
2018-12-16T22:29:24.913Z,1.40
2018-12-16T22:31:53.480Z,1.40
2018-12-16T22:34:22.036Z,1.40
2018-12-16T22:36:50.647Z,1.40
2018-12-16T22:39:19.210Z,1.40
2018-12-16T22:41:47.783Z,1.40
2018-12-16T22:44:16.321Z,1.40
2018-12-16T22:46:45.020Z,1.30
2018-12-16T22:49:13.645Z,1.30
2018-12-16T22:51:42.201Z,1.30
2018-12-16T22:54:10.777Z,1.30
2018-12-16T22:56:39.340Z,1.30
2018-12-16T22:59:07.934Z,1.40
2018-12-16T23:01:36.483Z,1.40
2018-12-16T23:04:05.084Z,1.40
2018-12-16T23:06:33.697Z,1.40
2018-12-16T23:09:02.409Z,1.40
2018-12-16T23:11:30.960Z,1.40
2018-12-16T23:13:59.528Z,1.40
2018-12-16T23:16:28.096Z,1.30
2018-12-16T23:18:56.644Z,1.40
2018-12-16T23:21:25.220Z,1.30
2018-12-16T23:23:53.745Z,1.40
2018-12-16T23:26:22.375Z,1.40
2018-12-16T23:28:50.948Z,1.50
2018-12-16T23:31:19.524Z,1.50
2018-12-16T23:33:48.096Z,1.50
2018-12-16T23:36:16.904Z,1.60
2018-12-16T23:38:45.461Z,1.70
2018-12-16T23:41:14.032Z,1.70
2018-12-16T23:43:42.588Z,1.70
2018-12-16T23:46:11.140Z,1.80
2018-12-16T23:48:39.692Z,1.80
2018-12-16T23:51:08.228Z,1.90
2018-12-16T23:53:36.781Z,1.90
2018-12-16T23:56:05.332Z,1.90
2018-12-16T23:58:33.886Z,2.00
